createdAt,value
2018-12-29T00:01:34.073Z,82.64
2018-12-29T00:04:02.992Z,82.57
2018-12-29T00:06:34.111Z,82.55
2018-12-29T00:09:22.295Z,82.68
2018-12-29T00:12:10.401Z,82.74
2018-12-29T00:14:39.260Z,82.51
2018-12-29T00:17:08.158Z,82.39
2018-12-29T00:22:31.188Z,82.25
2018-12-29T00:25:19.334Z,82.70
2018-12-29T00:28:07.474Z,82.79
2018-12-29T00:30:36.460Z,82.92
2018-12-29T00:33:24.925Z,82.84
2018-12-29T00:35:53.824Z,82.53
2018-12-29T00:38:41.925Z,82.31
2018-12-29T00:41:10.761Z,82.50
2018-12-29T00:43:39.552Z,82.00
2018-12-29T00:46:08.616Z,82.15
2018-12-29T00:48:37.525Z,82.18
2018-12-29T00:54:13.613Z,82.05
2018-12-29T00:57:01.712Z,81.67
2018-12-29T00:59:30.569Z,81.76
2018-12-29T01:01:59.397Z,82.01
2018-12-29T01:04:47.539Z,81.92
2018-12-29T01:07:35.647Z,82.28
2018-12-29T01:10:04.973Z,82.17
2018-12-29T01:12:53.197Z,81.78
2018-12-29T01:15:41.328Z,82.05
2018-12-29T01:18:29.511Z,82.04
2018-12-29T01:21:17.641Z,82.02
2018-12-29T01:24:05.909Z,82.01
2018-12-29T01:26:34.777Z,82.07
2018-12-29T01:29:22.905Z,82.20
2018-12-29T01:32:11.052Z,82.51
2018-12-29T01:34:39.951Z,82.56
2018-12-29T01:37:28.089Z,82.95
2018-12-29T01:39:56.912Z,82.08
2018-12-29T01:42:45.040Z,82.07
2018-12-29T01:45:17.511Z,82.14
2018-12-29T01:47:44.538Z,82.08
2018-12-29T01:50:32.648Z,81.92
2018-12-29T01:53:20.784Z,82.14
2018-12-29T01:56:08.895Z,81.99
2018-12-29T01:58:57.067Z,82.27
2018-12-29T02:01:26.033Z,81.86
2018-12-29T02:03:55.007Z,81.97
2018-12-29T02:06:23.945Z,82.12
2018-12-29T02:08:52.868Z,82.14
2018-12-29T02:11:21.687Z,82.45
2018-12-29T02:14:10.171Z,82.51
2018-12-29T02:16:58.290Z,82.14
2018-12-29T02:19:27.191Z,82.27
2018-12-29T02:22:15.037Z,82.57
2018-12-29T02:24:43.949Z,82.90
2018-12-29T02:27:12.838Z,82.45
2018-12-29T02:29:41.734Z,82.74
2018-12-29T02:32:29.598Z,82.65
2018-12-29T02:34:58.564Z,82.95
2018-12-29T02:37:27.397Z,83.25
2018-12-29T02:40:15.511Z,83.10
2018-12-29T02:42:44.385Z,82.77
2018-12-29T02:45:13.245Z,82.89
2018-12-29T02:47:42.209Z,82.90
2018-12-29T02:50:11.127Z,82.88
2018-12-29T02:52:39.925Z,82.86
2018-12-29T02:55:27.865Z,82.98
2018-12-29T02:57:56.813Z,82.93
2018-12-29T03:00:25.646Z,82.95
2018-12-29T03:02:54.559Z,83.22
2018-12-29T03:05:23.675Z,83.39
2018-12-29T03:07:52.546Z,83.47
2018-12-29T03:10:40.460Z,83.21
2018-12-29T03:13:09.339Z,83.54
2018-12-29T03:15:41.717Z,83.67
2018-12-29T03:18:08.831Z,83.95
2018-12-29T03:20:37.720Z,83.88
2018-12-29T03:23:25.879Z,84.18
2018-12-29T03:25:54.695Z,83.95
2018-12-29T03:28:42.851Z,83.71
2018-12-29T03:31:30.981Z,83.84
2018-12-29T03:33:59.869Z,84.19
2018-12-29T03:36:47.981Z,84.18
2018-12-29T03:39:16.790Z,84.26
2018-12-29T03:41:45.606Z,84.27
2018-12-29T03:44:14.410Z,84.28
2018-12-29T03:46:43.320Z,84.55
2018-12-29T03:49:12.189Z,84.38
2018-12-29T03:51:41.125Z,84.45
2018-12-29T03:54:09.961Z,84.49
2018-12-29T03:59:33.652Z,84.80
2018-12-29T04:02:21.563Z,84.58
2018-12-29T04:04:50.409Z,84.52
2018-12-29T04:07:38.495Z,84.79
2018-12-29T04:10:29.264Z,84.94
2018-12-29T04:13:00.151Z,84.83
2018-12-29T04:15:28.941Z,84.75
2018-12-29T04:17:57.867Z,84.75
2018-12-29T04:20:26.667Z,84.81
2018-12-29T04:22:55.561Z,84.77
2018-12-29T04:25:43.662Z,85.08
2018-12-29T04:28:12.500Z,85.08
2018-12-29T04:31:00.413Z,84.97
2018-12-29T04:33:48.539Z,84.86
2018-12-29T04:36:17.375Z,84.84
2018-12-29T04:39:05.467Z,85.04
2018-12-29T04:41:53.572Z,85.12
2018-12-29T04:44:41.691Z,85.17
2018-12-29T04:47:29.845Z,85.06
2018-12-29T04:49:58.883Z,85.38
2018-12-29T04:52:47.010Z,85.22
2018-12-29T04:55:35.163Z,85.28
2018-12-29T04:58:04.046Z,85.27
2018-12-29T05:00:32.861Z,85.33
2018-12-29T05:03:20.993Z,85.23
2018-12-29T05:06:09.141Z,85.38
2018-12-29T05:08:57.244Z,85.16
2018-12-29T05:11:45.164Z,85.45
2018-12-29T05:14:14.031Z,85.10
2018-12-29T05:16:42.857Z,85.36
2018-12-29T05:19:30.958Z,85.46
2018-12-29T05:22:39.534Z,85.39
2018-12-29T05:25:08.534Z,85.28
2018-12-29T05:27:37.366Z,85.10
2018-12-29T05:30:46.140Z,85.21
2018-12-29T05:33:15.248Z,85.41
2018-12-29T05:36:03.382Z,85.41
2018-12-29T05:38:51.491Z,85.49
2018-12-29T05:44:27.411Z,85.59
2018-12-29T05:47:15.526Z,85.35
2018-12-29T05:49:44.452Z,85.42
2018-12-29T05:52:13.245Z,85.22
2018-12-29T05:54:42.164Z,85.41
2018-12-29T05:57:10.986Z,85.49
2018-12-29T05:59:58.895Z,85.21
2018-12-29T06:02:30.229Z,85.26
2018-12-29T06:05:18.085Z,85.31
2018-12-29T06:07:46.984Z,85.32
2018-12-29T06:10:15.875Z,85.35
2018-12-29T06:13:04.041Z,85.29
2018-12-29T06:15:32.859Z,85.50
2018-12-29T06:18:01.743Z,85.70
2018-12-29T06:20:30.625Z,85.72
2018-12-29T06:23:18.735Z,85.63
2018-12-29T06:25:50.096Z,85.52
2018-12-29T06:28:18.911Z,85.56
2018-12-29T06:31:07.136Z,85.53
2018-12-29T06:33:35.955Z,85.50
2018-12-29T06:36:04.815Z,85.51
2018-12-29T06:38:52.933Z,85.75
2018-12-29T06:41:41.043Z,85.49
2018-12-29T06:44:49.618Z,85.61
2018-12-29T06:47:18.524Z,85.33
2018-12-29T06:49:47.322Z,85.40
2018-12-29T06:52:35.449Z,85.12
2018-12-29T06:55:04.355Z,85.36
2018-12-29T06:57:33.226Z,85.26
2018-12-29T07:03:09.319Z,85.23
2018-12-29T07:05:38.143Z,85.15
2018-12-29T07:08:26.298Z,85.13
2018-12-29T07:11:14.390Z,85.02
2018-12-29T07:16:42.221Z,85.11
2018-12-29T07:19:08.577Z,85.48
2018-12-29T07:21:37.411Z,85.56
2018-12-29T07:24:06.267Z,85.42
2018-12-29T07:26:35.341Z,85.26
2018-12-29T07:29:04.282Z,84.91
2018-12-29T07:31:33.179Z,84.97
2018-12-29T07:34:02.085Z,84.87
2018-12-29T07:36:31.056Z,85.22
2018-12-29T07:38:59.971Z,85.00
2018-12-29T07:41:29.099Z,84.74
2018-12-29T07:44:17.196Z,84.88
2018-12-29T07:46:49.578Z,85.07
2018-12-29T07:49:16.621Z,85.07
2018-12-29T07:51:45.528Z,85.02
2018-12-29T07:54:14.459Z,84.74
2018-12-29T07:57:02.567Z,84.93
2018-12-29T07:59:50.443Z,84.98
2018-12-29T08:02:19.349Z,84.95
2018-12-29T08:04:48.294Z,84.95
2018-12-29T08:07:17.211Z,84.80
2018-12-29T08:09:46.070Z,84.93
2018-12-29T08:12:14.932Z,84.77
2018-12-29T08:14:43.861Z,84.71
2018-12-29T08:17:12.740Z,84.34
2018-12-29T08:19:41.623Z,84.37
2018-12-29T08:22:10.425Z,84.23
2018-12-29T08:24:39.313Z,84.21
2018-12-29T08:27:08.230Z,84.59
2018-12-29T08:29:37.045Z,84.52
2018-12-29T08:32:05.956Z,84.23
2018-12-29T08:34:34.881Z,84.12
2018-12-29T08:37:03.771Z,84.42
2018-12-29T08:39:32.784Z,84.46
2018-12-29T08:42:01.822Z,84.33
2018-12-29T08:44:30.712Z,84.63
2018-12-29T08:47:04.521Z,84.38
2018-12-29T08:49:31.531Z,84.31
2018-12-29T08:52:00.490Z,84.60
2018-12-29T08:54:29.330Z,84.64
2018-12-29T08:56:58.221Z,84.56
2018-12-29T08:59:27.211Z,84.31
2018-12-29T09:01:56.102Z,84.56
2018-12-29T09:04:25.015Z,84.71
2018-12-29T09:06:53.874Z,85.03
2018-12-29T09:09:22.865Z,84.47
2018-12-29T09:11:51.725Z,84.67
2018-12-29T09:14:20.639Z,84.47
2018-12-29T09:16:49.622Z,84.63
2018-12-29T09:19:18.432Z,84.67
2018-12-29T09:21:47.246Z,84.66
2018-12-29T09:24:16.126Z,85.03
2018-12-29T09:26:45.153Z,84.37
2018-12-29T09:30:20.573Z,84.63
2018-12-29T09:32:49.509Z,84.27
2018-12-29T09:35:48.878Z,84.30
2018-12-29T09:39:09.098Z,84.38
2018-12-29T09:41:38.033Z,84.31
2018-12-29T09:44:06.952Z,84.19
2018-12-29T09:46:35.888Z,83.83
2018-12-29T09:49:04.784Z,84.00
2018-12-29T09:51:33.610Z,83.77
2018-12-29T09:54:03.559Z,83.90
2018-12-29T09:56:32.552Z,83.96
2018-12-29T09:59:01.373Z,83.67
2018-12-29T10:01:30.189Z,83.49
2018-12-29T10:03:59.069Z,83.75
2018-12-29T10:06:27.862Z,83.39
2018-12-29T10:08:56.857Z,83.33
2018-12-29T10:11:25.817Z,83.40
2018-12-29T10:13:54.784Z,83.15
2018-12-29T10:16:23.726Z,83.05
2018-12-29T10:18:52.694Z,82.52
2018-12-29T10:21:21.632Z,82.69
2018-12-29T10:23:50.477Z,83.05
2018-12-29T10:26:22.281Z,83.08
2018-12-29T10:28:51.200Z,82.41
2018-12-29T10:31:20.120Z,82.22
2018-12-29T10:34:07.166Z,82.00
2018-12-29T10:36:36.094Z,81.64
2018-12-29T10:39:07.388Z,82.03
2018-12-29T10:41:36.310Z,81.28
2018-12-29T10:44:05.380Z,81.60
2018-12-29T10:46:34.434Z,81.33
2018-12-29T10:49:03.429Z,81.12
2018-12-29T10:51:32.320Z,80.74
2018-12-29T10:54:01.427Z,80.51
2018-12-29T10:56:30.367Z,80.79
2018-12-29T10:58:59.250Z,80.94
2018-12-29T11:04:56.457Z,80.47
2018-12-29T11:07:25.472Z,80.25
2018-12-29T11:09:54.361Z,80.12
2018-12-29T11:12:23.177Z,80.54
2018-12-29T11:14:51.988Z,80.11
2018-12-29T11:17:20.891Z,79.74
2018-12-29T11:19:49.828Z,79.49
2018-12-29T11:22:18.758Z,79.62
2018-12-29T11:24:47.734Z,79.79
2018-12-29T11:27:16.747Z,79.16
2018-12-29T11:29:45.708Z,79.52
2018-12-29T11:32:14.610Z,79.99
2018-12-29T11:34:43.599Z,79.50
2018-12-29T11:37:12.519Z,79.46
2018-12-29T11:39:41.427Z,79.57
2018-12-29T11:42:10.356Z,79.57
2018-12-29T11:44:39.283Z,80.00
2018-12-29T11:47:08.208Z,79.81
2018-12-29T11:49:37.337Z,79.87
2018-12-29T11:52:06.339Z,80.14
2018-12-29T11:54:35.324Z,79.84
2018-12-29T11:57:04.186Z,80.04
2018-12-29T11:59:33.021Z,79.41
2018-12-29T12:02:03.735Z,79.14
2018-12-29T12:04:32.728Z,79.48
2018-12-29T12:07:01.983Z,79.71
2018-12-29T12:09:30.919Z,79.95
2018-12-29T12:11:59.819Z,79.87
2018-12-29T12:17:57.814Z,79.06
2018-12-29T12:20:27.072Z,78.99
2018-12-29T12:22:55.965Z,79.23
2018-12-29T12:25:24.915Z,78.99
2018-12-29T12:27:54.092Z,79.01
2018-12-29T12:30:23.000Z,78.43
2018-12-29T12:32:51.950Z,78.43
2018-12-29T12:35:20.896Z,78.49
2018-12-29T12:37:49.861Z,78.40
2018-12-29T12:40:18.718Z,78.00
2018-12-29T12:42:47.570Z,78.46
2018-12-29T12:45:16.430Z,78.36
2018-12-29T12:47:45.379Z,78.09
2018-12-29T12:50:14.310Z,78.10
2018-12-29T12:52:43.323Z,78.47
2018-12-29T12:55:12.311Z,78.54
2018-12-29T12:57:41.167Z,78.64
2018-12-29T13:00:10.515Z,78.34
2018-12-29T13:02:41.588Z,78.11
2018-12-29T13:05:10.559Z,78.24
2018-12-29T13:07:39.483Z,78.13
2018-12-29T13:10:08.645Z,77.99
2018-12-29T13:12:37.575Z,78.13
2018-12-29T13:15:06.563Z,78.13
2018-12-29T13:17:35.500Z,78.12
2018-12-29T13:20:05.139Z,77.76
2018-12-29T13:22:34.100Z,78.09
2018-12-29T13:25:03.008Z,78.04
2018-12-29T13:27:31.984Z,77.62
2018-12-29T13:30:00.882Z,77.70
2018-12-29T13:32:29.876Z,77.72
2018-12-29T13:34:58.900Z,77.92
2018-12-29T13:37:27.806Z,78.02
2018-12-29T13:39:56.808Z,77.90
2018-12-29T13:42:25.768Z,77.76
2018-12-29T13:44:54.675Z,77.65
2018-12-29T13:47:23.677Z,77.22
2018-12-29T13:49:52.497Z,77.67
2018-12-29T13:52:21.455Z,77.63
2018-12-29T13:54:50.334Z,77.68
2018-12-29T13:57:20.286Z,77.85
2018-12-29T13:59:49.590Z,77.09
2018-12-29T14:02:18.567Z,77.25
2018-12-29T14:08:16.419Z,77.14
2018-12-29T14:11:04.397Z,77.36
2018-12-29T14:13:33.278Z,77.43
2018-12-29T14:16:21.733Z,77.61
2018-12-29T14:21:57.481Z,77.71
2018-12-29T14:24:45.627Z,77.31
2018-12-29T14:27:14.559Z,77.42
2018-12-29T14:29:43.534Z,77.98
2018-12-29T14:32:12.811Z,77.99
2018-12-29T14:34:43.447Z,77.85
2018-12-29T14:37:53.947Z,77.93
2018-12-29T14:40:22.877Z,77.46
2018-12-29T14:42:51.724Z,77.43
2018-12-29T14:46:02.432Z,77.29
2018-12-29T14:48:35.846Z,77.22
2018-12-29T14:51:07.918Z,77.49
2018-12-29T14:53:36.896Z,77.96
2018-12-29T14:56:05.789Z,78.63
2018-12-29T14:58:34.780Z,78.98
2018-12-29T15:01:03.692Z,79.02
2018-12-29T15:03:32.507Z,78.64
2018-12-29T15:06:01.470Z,79.53
2018-12-29T15:08:30.426Z,79.80
2018-12-29T15:10:59.344Z,80.04
2018-12-29T15:13:28.548Z,80.28
2018-12-29T15:15:57.461Z,80.49
2018-12-29T15:18:26.453Z,80.57
2018-12-29T15:20:55.494Z,80.79
2018-12-29T15:23:24.426Z,81.04
2018-12-29T15:25:53.623Z,81.00
2018-12-29T15:28:22.675Z,80.94
2018-12-29T15:30:51.598Z,81.33
2018-12-29T15:33:20.516Z,81.69
2018-12-29T15:35:49.416Z,81.85
2018-12-29T15:38:18.240Z,81.71
2018-12-29T15:40:47.531Z,81.72
2018-12-29T15:43:19.726Z,81.70
2018-12-29T15:45:48.559Z,81.85
2018-12-29T15:48:17.556Z,81.96
2018-12-29T15:50:46.473Z,81.95
2018-12-29T15:53:15.378Z,82.41
2018-12-29T15:55:44.250Z,82.50
2018-12-29T15:58:13.520Z,82.67
2018-12-29T16:00:42.420Z,82.34
2018-12-29T16:03:12.111Z,82.74
2018-12-29T16:05:40.959Z,82.92
2018-12-29T16:08:09.988Z,82.82
2018-12-29T16:10:39.001Z,83.09
2018-12-29T16:13:07.978Z,83.04
2018-12-29T16:15:37.028Z,82.69
2018-12-29T16:18:05.919Z,82.90
2018-12-29T16:20:34.844Z,82.86
2018-12-29T16:23:03.850Z,82.77
2018-12-29T16:29:01.623Z,82.95
2018-12-29T16:31:30.571Z,82.35
2018-12-29T16:33:59.528Z,82.73
2018-12-29T16:36:28.854Z,82.59
2018-12-29T16:38:57.900Z,82.69
2018-12-29T16:41:26.689Z,82.47
2018-12-29T16:43:55.895Z,82.76
2018-12-29T16:46:24.897Z,82.43
2018-12-29T16:48:53.823Z,81.90
2018-12-29T16:51:22.812Z,82.23
2018-12-29T16:53:51.940Z,81.95
2018-12-29T16:56:22.462Z,81.95
2018-12-29T16:58:51.433Z,81.98
2018-12-29T17:01:20.402Z,82.09
2018-12-29T17:03:49.601Z,82.40
2018-12-29T17:06:18.493Z,82.12
2018-12-29T17:08:47.316Z,82.26
2018-12-29T17:11:16.303Z,82.13
2018-12-29T17:13:45.642Z,82.52
2018-12-29T17:16:14.598Z,82.64
2018-12-29T17:18:43.425Z,82.79
2018-12-29T17:21:12.972Z,83.35
2018-12-29T17:23:41.745Z,83.12
2018-12-29T17:26:10.662Z,82.43
2018-12-29T17:28:39.458Z,82.69
2018-12-29T17:31:08.465Z,82.98
2018-12-29T17:33:37.403Z,82.94
2018-12-29T17:36:06.293Z,83.01
2018-12-29T17:38:35.150Z,82.98
2018-12-29T17:41:04.331Z,82.66
2018-12-29T17:43:33.366Z,82.93
2018-12-29T17:46:02.306Z,83.17
2018-12-29T17:48:31.269Z,82.78
2018-12-29T17:51:00.203Z,83.13
2018-12-29T17:53:29.526Z,83.16
2018-12-29T17:55:58.525Z,82.99
2018-12-29T17:58:27.434Z,83.09
2018-12-29T18:00:56.387Z,83.39
2018-12-29T18:03:25.487Z,83.53
2018-12-29T18:05:54.849Z,83.29
2018-12-29T18:08:23.974Z,83.32
2018-12-29T18:10:52.989Z,83.39
2018-12-29T18:13:22.038Z,83.51
2018-12-29T18:15:51.064Z,83.42
2018-12-29T18:18:22.862Z,83.25
2018-12-29T18:20:52.821Z,83.49
2018-12-29T18:23:21.828Z,83.61
2018-12-29T18:25:50.757Z,83.53
2018-12-29T18:28:19.694Z,83.81
2018-12-29T18:30:48.653Z,83.85
2018-12-29T18:33:17.681Z,83.81
2018-12-29T18:35:46.683Z,83.97
2018-12-29T18:38:48.931Z,84.24
2018-12-29T18:41:18.122Z,84.17
2018-12-29T18:43:47.084Z,84.51
2018-12-29T18:46:17.051Z,84.67
2018-12-29T18:48:46.010Z,84.79
2018-12-29T18:51:50.853Z,84.62
2018-12-29T18:54:22.569Z,84.57
2018-12-29T18:56:51.813Z,84.46
2018-12-29T18:59:20.977Z,84.94
2018-12-29T19:01:57.408Z,84.99
2018-12-29T19:04:20.976Z,85.15
2018-12-29T19:06:49.901Z,85.06
2018-12-29T19:09:28.283Z,85.13
2018-12-29T19:11:57.233Z,85.26
2018-12-29T19:14:26.109Z,85.25
2018-12-29T19:16:55.487Z,85.02
2018-12-29T19:19:24.991Z,85.26
2018-12-29T19:21:53.929Z,85.47
2018-12-29T19:24:22.830Z,85.52
2018-12-29T19:26:53.930Z,85.51
2018-12-29T19:29:22.530Z,85.46
2018-12-29T19:31:52.558Z,85.48
2018-12-29T19:34:22.700Z,85.59
2018-12-29T19:36:51.698Z,85.89
2018-12-29T19:39:21.062Z,85.60
2018-12-29T19:41:54.943Z,85.63
2018-12-29T19:44:20.776Z,85.58
2018-12-29T19:46:49.963Z,85.50
2018-12-29T19:49:18.967Z,85.48
2018-12-29T19:51:47.883Z,85.52
2018-12-29T19:54:17.280Z,85.63
2018-12-29T19:56:46.284Z,85.53
2018-12-29T19:59:15.531Z,85.38
2018-12-29T20:01:47.543Z,85.39
2018-12-29T20:04:16.926Z,85.29
2018-12-29T20:06:45.781Z,85.01
2018-12-29T20:09:47.733Z,85.27
2018-12-29T20:12:16.726Z,85.29
2018-12-29T20:14:45.607Z,85.41
2018-12-29T20:17:14.522Z,85.73
2018-12-29T20:20:38.098Z,85.60
2018-12-29T20:23:07.141Z,85.87
2018-12-29T20:25:57.331Z,85.09
2018-12-29T20:28:26.399Z,84.95
2018-12-29T20:30:55.298Z,85.01
2018-12-29T20:33:24.601Z,84.78
2018-12-29T20:35:53.518Z,84.86
2018-12-29T20:38:41.651Z,85.00
2018-12-29T20:41:29.804Z,84.49
2018-12-29T20:47:05.872Z,84.70
2018-12-29T20:49:53.998Z,84.77
2018-12-29T20:52:42.149Z,84.48
2018-12-29T20:55:30.297Z,84.70
2018-12-29T20:58:18.442Z,84.89
2018-12-29T21:01:27.084Z,84.89
2018-12-29T21:03:55.946Z,84.65
2018-12-29T21:06:24.899Z,84.87
2018-12-29T21:08:53.720Z,84.95
2018-12-29T21:11:22.654Z,85.05
2018-12-29T21:13:51.751Z,85.16
2018-12-29T21:16:20.639Z,84.89
2018-12-29T21:18:50.114Z,84.73
2018-12-29T21:21:19.102Z,84.51
2018-12-29T21:23:48.028Z,84.65
2018-12-29T21:26:17.168Z,85.07
2018-12-29T21:28:46.182Z,84.94
2018-12-29T21:31:15.218Z,85.06
2018-12-29T21:33:44.183Z,85.22
2018-12-29T21:36:13.184Z,84.87
2018-12-29T21:38:42.187Z,84.64
2018-12-29T21:41:11.229Z,84.92
2018-12-29T21:43:40.382Z,85.09
2018-12-29T21:46:09.428Z,85.00
2018-12-29T21:48:38.429Z,85.03
2018-12-29T21:51:07.424Z,84.94
2018-12-29T21:53:36.484Z,84.90
2018-12-29T21:56:05.396Z,85.16
2018-12-29T21:58:34.720Z,85.23
2018-12-29T22:01:03.714Z,85.41
2018-12-29T22:03:32.661Z,85.30
2018-12-29T22:06:01.527Z,85.40
2018-12-29T22:08:30.453Z,85.34
2018-12-29T22:10:59.442Z,85.33
2018-12-29T22:13:28.405Z,85.39
2018-12-29T22:15:57.312Z,85.57
2018-12-29T22:18:26.160Z,85.59
2018-12-29T22:20:55.188Z,85.98
2018-12-29T22:23:24.251Z,86.27
2018-12-29T22:25:53.620Z,86.13
2018-12-29T22:28:22.492Z,85.87
2018-12-29T22:30:51.473Z,86.05
2018-12-29T22:33:20.462Z,85.90
2018-12-29T22:35:49.425Z,86.05
2018-12-29T22:38:18.912Z,86.14
2018-12-29T22:40:47.798Z,86.06
2018-12-29T22:43:16.811Z,86.17
2018-12-29T22:45:45.790Z,86.24
2018-12-29T22:48:14.775Z,86.21
2018-12-29T22:50:43.700Z,86.21
2018-12-29T22:53:12.700Z,86.38
2018-12-29T22:55:41.667Z,86.48
2018-12-29T22:58:10.626Z,86.58
2018-12-29T23:00:41.417Z,86.48
2018-12-29T23:03:10.440Z,86.47
2018-12-29T23:05:39.409Z,86.57
2018-12-29T23:08:08.430Z,86.56
2018-12-29T23:10:37.394Z,86.65
2018-12-29T23:13:06.429Z,86.75
2018-12-29T23:15:35.336Z,86.70
2018-12-29T23:18:06.805Z,86.64
2018-12-29T23:20:36.169Z,86.65
2018-12-29T23:23:05.117Z,86.60
2018-12-29T23:25:34.140Z,86.45
2018-12-29T23:28:03.157Z,86.40
2018-12-29T23:30:32.021Z,86.50
2018-12-29T23:33:00.917Z,86.45
2018-12-29T23:35:30.729Z,86.61
2018-12-29T23:38:00.251Z,86.64
2018-12-29T23:40:29.136Z,86.75
2018-12-29T23:42:58.023Z,86.79
2018-12-29T23:45:26.938Z,86.63
2018-12-29T23:47:55.876Z,86.62
2018-12-29T23:50:27.124Z,86.71
2018-12-29T23:52:57.824Z,86.58
2018-12-29T23:55:27.196Z,86.67
2018-12-29T23:57:56.157Z,86.74
